Nearby METAR Reports

 

KLBE - Latrobe/Westmorl, Pennsylvania, USA
Distance from station: SE 16mi, 26km
Updated: Tue, 27-Jun-2017 12:50pm EDT
Mostly cloudy
Mostly cloudy
 Wind from W
Wind: W 14 mph , 22 km/h, Gust: 25 mph , 41 km/h
Temperature: 66°F , 19°C
Dew Point: 48°F , 9°C
Humidity: 52%
Barometer: 30.07 inHg , 1018.3 hPa
Clouds: Mostly cloudy
Visibility: 10 miles , 16 km
Cloud details: Mostly cloudy 4000 ft
2017/06/27 16:50 KLBE 271650Z 28012G22KT 10SM BKN040 19/09 A3007
KAGC - Pittsburgh/Alleg, Pennsylvania, USA
Distance from station: WSW 18mi, 30km
Updated: Tue, 27-Jun-2017 12:53pm EDT
Mostly cloudy
Mostly cloudy
 Wind from WNW
Wind: WNW 8 mph , 13 km/h, Gust: 16 mph , 26 km/h
Temperature: 63°F , 17°C
Dew Point: 43°F , 6°C
Humidity: 49%
Barometer: 30.07 inHg , 1018.3 hPa
Clouds: Mostly cloudy
Visibility: 10 miles , 16 km
Cloud details: Mostly cloudy 4500 ft
Mostly cloudy 5500 ft
2017/06/27 16:53 KAGC 271653Z 30007G14KT 10SM BKN045 BKN055 17/06 A3007 RMK AO2 SLP182 T01720061
 
KBTP - Butler Co., Pennsylvania, USA
Distance from station: NW 29mi, 47km
Updated: Tue, 27-Jun-2017 12:55pm EDT
Overcast
Overcast
 Wind from WSW
Wind: WSW 13 mph , 20 km/h, Gust: 21 mph , 33 km/h
Temperature: 64°F , 18°C
Dew Point: 48°F , 9°C
Humidity: 56%
Barometer: 30.07 inHg , 1018.3 hPa
Clouds: Overcast
Visibility: 10 miles , 16 km
Cloud details: Partly cloudy 4100 ft
Mostly cloudy 6500 ft
Overcast 7000 ft
2017/06/27 16:55 KBTP 271655Z AUTO 25011G18KT 10SM SCT041 BKN065 OVC070 18/09 A3007 RMK AO1
KIDI - Indiana/Stewart, Pennsylvania, USA
Distance from station: ENE 29mi, 47km
Updated: Tue, 27-Jun-2017 12:55pm EDT
Mostly cloudy
Mostly cloudy
 Wind from WNW
Wind: WNW 12 mph , 19 km/h, Gust: 18 mph , 30 km/h
Temperature: 64°F , 18°C
Dew Point: 46°F , 8°C
Humidity: 52%
Barometer: 30.07 inHg , 1018.3 hPa
Clouds: Mostly cloudy
Visibility: 10 miles , 16 km
Cloud details: Partly cloudy 4800 ft
Mostly cloudy 6000 ft
2017/06/27 16:55 KIDI 271655Z AUTO 30010G16KT 10SM SCT048 BKN060 18/08 A3007 RMK A01
 
KPIT - Pittsburgh, Pennsylvania, USA
Distance from station: W 36mi, 57km
Updated: Tue, 27-Jun-2017 12:51pm EDT
Mostly cloudy
Mostly cloudy
 Wind from WNW
Wind: WNW 16 mph , 26 km/h
Temperature: 64°F , 18°C
Dew Point: 46°F , 8°C
Humidity: 52%
Barometer: 30.07 inHg , 1018.3 hPa
Clouds: Mostly cloudy
Visibility: 10 miles , 16 km
Cloud details: Partly cloudy 4300 ft
Mostly cloudy 6500 ft
2017/06/27 16:51 KPIT 271651Z 29014KT 10SM SCT043 BKN065 18/08 A3007 RMK AO2 SLP186 T01830083
KJST - Johnstown, Pennsylvania, USA
Distance from station: ESE 41mi, 66km
Updated: Tue, 27-Jun-2017 12:54pm EDT
Mostly cloudy
Mostly cloudy
 Wind from W
Wind: W 17 mph , 28 km/h, Gust: 25 mph , 41 km/h
Temperature: 63°F , 17°C
Dew Point: 46°F , 8°C
Humidity: 56%
Barometer: 30.05 inHg , 1017.6 hPa
Clouds: Mostly cloudy
Visibility: 10 miles , 16 km
Cloud details: Mostly cloudy 6500 ft
2017/06/27 16:54 KJST 271654Z AUTO 26015G22KT 10SM BKN065 17/08 A3005 RMK AO2 SLP172 T01670083
 
KAFJ - Washington, Pennsylvania, USA
Distance from station: WSW 42mi, 68km
Updated: Tue, 27-Jun-2017 12:55pm EDT
Overcast
Overcast
 Wind from W
Wind: W 12 mph , 19 km/h, Gust: 21 mph , 33 km/h
Temperature: 64°F , 18°C
Dew Point: 46°F , 8°C
Humidity: 52%
Barometer: 30.11 inHg , 1019.6 hPa
Clouds: Overcast
Visibility: 10 miles , 16 km
Cloud details: Partly cloudy 4500 ft
Overcast 6000 ft
2017/06/27 16:55 KAFJ 271655Z AUTO 28010G18KT 10SM SCT045 OVC060 18/08 A3011 RMK AO1
KBVI - Beaver Falls Arp, Pennsylvania, USA
Distance from station: WNW 48mi, 77km
Updated: Tue, 27-Jun-2017 12:47pm EDT
Overcast
Overcast
 Wind from W
Wind: W 9 mph , 15 km/h, Gust: 18 mph , 30 km/h
Temperature: 63°F , 17°C
Dew Point: 46°F , 8°C
Humidity: 56%
Barometer: 30.08 inHg , 1018.6 hPa
Clouds: Overcast
Visibility: 10 miles , 16 km
Cloud details: Partly cloudy 4000 ft
Partly cloudy 4700 ft
Overcast 6500 ft
2017/06/27 16:47 KBVI 271647Z 27008G16KT 10SM SCT040 SCT047 OVC065 17/08 A3008